Time;durP1;ratioP1;P1;durP2;ratioP2;P2;SDS_P1;SDS_P2;PMS_P1;PMS_P2;Temp;Humidity;BMP_temperature;BMP_pressure;BME280_temperature;BME280_humidity;BME280_pressure;Samples;Min_cycle;Max_cycle;Signal;HPM_P1;HPM_P2
2023/06/24 00:02:09;;;;;;;3.88;2.50;;;22.90;87.20;;;;;;5005329;28;20029;-17
2023/06/24 00:04:35;;;;;;;2.97;2.10;;;22.90;87.50;;;;;;4996760;28;20494;-16
2023/06/24 00:07:01;;;;;;;4.00;2.20;;;22.80;87.50;;;;;;5021788;28;20118;-15
2023/06/24 00:09:27;;;;;;;3.97;2.40;;;22.80;87.60;;;;;;4979628;28;20059;-15
2023/06/24 00:11:59;;;;;;;3.25;2.30;;;22.80;87.70;;;;;;5020813;28;20285;-15
2023/06/24 00:14:26;;;;;;;2.97;2.17;;;22.70;87.70;;;;;;5010269;28;20037;-16
2023/06/24 00:16:53;;;;;;;2.60;2.08;;;22.60;87.80;;;;;;5008343;28;20083;-15
2023/06/24 00:19:21;;;;;;;3.30;2.15;;;22.60;87.80;;;;;;4999911;28;20026;-19
2023/06/24 00:21:51;;;;;;;3.55;2.20;;;22.50;87.80;;;;;;5019782;28;20021;-16
2023/06/24 00:24:19;;;;;;;4.15;2.20;;;22.50;87.60;;;;;;4985107;28;20078;-18
2023/06/24 00:26:47;;;;;;;3.50;2.00;;;22.50;88.10;;;;;;5023737;28;20033;-16
2023/06/24 00:29:13;;;;;;;3.10;2.17;;;22.40;88.30;;;;;;5006109;28;20443;-16
2023/06/24 00:31:39;;;;;;;2.67;1.98;;;22.40;88.30;;;;;;5013097;28;20135;-16
2023/06/24 00:34:05;;;;;;;4.00;2.30;;;22.30;88.10;;;;;;5006189;28;20033;-16
2023/06/24 00:36:35;;;;;;;5.10;2.20;;;22.30;88.20;;;;;;4992271;28;20079;-17
2023/06/24 00:39:03;;;;;;;7.35;2.40;;;22.20;88.20;;;;;;4985860;28;20037;-16
2023/06/24 00:41:34;;;;;;;4.30;2.22;;;22.10;88.30;;;;;;5016759;28;20242;-15
2023/06/24 00:44:00;;;;;;;4.90;2.22;;;22.00;87.90;;;;;;5012147;28;20040;-16
2023/06/24 00:46:27;;;;;;;5.47;2.27;;;21.90;88.40;;;;;;5008922;28;20028;-16
2023/06/24 00:48:56;;;;;;;4.25;2.35;;;21.90;88.60;;;;;;5007679;28;20028;-15
2023/06/24 00:51:26;;;;;;;3.50;1.98;;;21.80;88.60;;;;;;5005604;28;20096;-17
2023/06/24 00:53:55;;;;;;;4.50;2.50;;;21.80;88.70;;;;;;4988628;28;20047;-15
2023/06/24 00:56:31;;;;;;;3.88;2.50;;;21.70;88.40;;;;;;5017497;28;20483;-17
2023/06/24 00:59:01;;;;;;;4.60;2.23;;;21.60;88.10;;;;;;5008758;28;20064;-16
2023/06/24 01:01:35;;;;;;;3.45;2.13;;;21.60;88.90;;;;;;5009295;28;20041;-16
2023/06/24 01:04:02;;;;;;;3.92;2.13;;;21.50;88.90;;;;;;5057948;28;20036;-15
2023/06/24 01:06:29;;;;;;;3.42;2.30;;;21.40;89.10;;;;;;4992620;28;20037;-16
2023/06/24 01:08:59;;;;;;;3.60;2.60;;;21.40;89.20;;;;;;4994367;28;20079;-16
2023/06/24 01:11:26;;;;;;;3.43;2.37;;;21.40;89.20;;;;;;5023064;28;20049;-17
2023/06/24 01:13:52;;;;;;;3.75;2.40;;;21.30;89.60;;;;;;5024862;28;20571;-15
2023/06/24 01:17:01;;;;;;;2.90;2.20;;;21.30;89.80;;;;;;5005145;28;20108;-18
2023/06/24 01:19:51;;;;;;;3.13;2.20;;;21.20;88.70;;;;;;5012584;28;20300;-16
2023/06/24 01:22:54;;;;;;;3.20;2.28;;;21.20;89.30;;;;;;5030694;28;20064;-18
2023/06/24 01:26:00;;;;;;;5.53;2.77;;;21.20;88.70;;;;;;4988127;28;20387;-19
2023/06/24 01:28:41;;;;;;;3.70;2.30;;;21.10;88.80;;;;;;5021040;28;20611;-16
2023/06/24 01:31:26;;;;;;;4.65;2.42;;;21.10;89.80;;;;;;5013432;28;20055;-17
2023/06/24 01:34:14;;;;;;;4.82;2.72;;;20.90;89.30;;;;;;5026767;28;20033;-17
2023/06/24 01:36:44;;;;;;;3.55;2.42;;;20.90;89.30;;;;;;5008457;28;20626;-17
2023/06/24 01:39:14;;;;;;;4.60;2.53;;;20.80;90.10;;;;;;5004282;28;20502;-19
2023/06/24 01:41:47;;;;;;;4.70;2.63;;;20.80;90.10;;;;;;5007171;28;20043;-15
2023/06/24 01:44:15;;;;;;;4.25;2.60;;;20.80;90.10;;;;;;5025607;28;20550;-17
2023/06/24 01:46:43;;;;;;;4.20;2.67;;;20.80;90.30;;;;;;5009733;28;20190;-15
2023/06/24 01:49:13;;;;;;;4.40;2.80;;;20.70;90.30;;;;;;5012274;28;20756;-17
2023/06/24 01:51:41;;;;;;;4.50;2.90;;;20.70;90.30;;;;;;5004302;28;20033;-16
2023/06/24 01:54:12;;;;;;;4.28;2.63;;;20.60;90.30;;;;;;5012734;28;20025;-17
2023/06/24 01:56:39;;;;;;;5.60;2.78;;;20.60;90.30;;;;;;5000361;28;20256;-16
2023/06/24 01:59:06;;;;;;;5.05;2.97;;;20.50;90.50;;;;;;5022234;28;20116;-16
2023/06/24 02:01:35;;;;;;;4.05;3.00;;;20.50;90.50;;;;;;5008499;28;20333;-15
2023/06/24 02:04:02;;;;;;;3.37;2.67;;;20.40;90.50;;;;;;5014094;28;20506;-19
2023/06/24 02:06:29;;;;;;;4.40;2.80;;;20.40;90.60;;;;;;5010622;28;20119;-16
2023/06/24 02:08:58;;;;;;;4.03;2.92;;;20.40;90.60;;;;;;5010772;28;20065;-17
2023/06/24 02:11:26;;;;;;;5.03;2.70;;;20.40;90.60;;;;;;5004157;28;20041;-17
2023/06/24 02:13:54;;;;;;;4.25;2.90;;;20.30;90.60;;;;;;5026660;28;20037;-16
2023/06/24 02:16:21;;;;;;;4.77;2.80;;;20.30;90.60;;;;;;5008514;28;20033;-18
2023/06/24 02:18:48;;;;;;;4.90;2.90;;;20.30;90.70;;;;;;5012862;28;20048;-16
2023/06/24 02:21:17;;;;;;;3.83;2.67;;;20.30;90.70;;;;;;5015532;28;20144;-19
2023/06/24 02:23:44;;;;;;;5.07;3.05;;;20.20;90.60;;;;;;5019043;28;20247;-15
2023/06/24 02:26:11;;;;;;;4.47;3.00;;;20.20;90.80;;;;;;5004586;28;20021;-19
2023/06/24 02:28:38;;;;;;;4.30;2.80;;;20.10;90.70;;;;;;5003507;28;20238;-15
2023/06/24 02:31:05;;;;;;;6.57;2.80;;;20.10;90.70;;;;;;5026649;28;20037;-16
2023/06/24 02:33:31;;;;;;;4.18;2.70;;;20.10;90.80;;;;;;4998675;28;20029;-16
2023/06/24 02:35:57;;;;;;;5.00;2.70;;;20.00;90.80;;;;;;5020882;28;20478;-15
2023/06/24 02:38:23;;;;;;;5.47;2.63;;;20.00;90.80;;;;;;5004620;28;20116;-19
2023/06/24 02:40:49;;;;;;;4.90;2.90;;;19.90;90.80;;;;;;5011733;28;20037;-16
2023/06/24 02:43:16;;;;;;;5.97;2.97;;;19.90;90.80;;;;;;4989368;28;20036;-17
2023/06/24 02:45:42;;;;;;;4.23;2.60;;;19.90;90.80;;;;;;5015077;28;20163;-17
2023/06/24 02:48:10;;;;;;;3.92;2.60;;;19.80;90.90;;;;;;5010744;28;20033;-18
2023/06/24 02:50:37;;;;;;;5.95;2.85;;;19.70;90.80;;;;;;5011042;28;20499;-16
2023/06/24 02:53:04;;;;;;;4.32;2.70;;;19.70;90.90;;;;;;5022410;28;20031;-16
2023/06/24 02:55:31;;;;;;;4.17;2.70;;;19.70;90.90;;;;;;4991611;28;20049;-16
2023/06/24 02:57:58;;;;;;;3.70;2.58;;;19.70;91.30;;;;;;4991315;28;20029;-15
2023/06/24 03:00:24;;;;;;;4.47;2.60;;;19.60;91.00;;;;;;5015289;28;20734;-17
2023/06/24 03:02:50;;;;;;;4.05;2.45;;;19.60;91.00;;;;;;5009915;28;20369;-15
2023/06/24 03:05:18;;;;;;;6.43;2.90;;;19.50;91.10;;;;;;5023096;28;20038;-18
2023/06/24 03:07:45;;;;;;;5.77;2.60;;;19.50;91.10;;;;;;5017927;28;20031;-15
2023/06/24 03:10:11;;;;;;;3.92;2.58;;;19.50;91.10;;;;;;5004329;28;20022;-18
2023/06/24 03:12:36;;;;;;;4.25;2.60;;;19.40;91.10;;;;;;4980264;28;21898;-15
2023/06/24 03:15:02;;;;;;;3.97;2.53;;;19.40;91.10;;;;;;5023722;28;20033;-15
2023/06/24 03:17:29;;;;;;;3.78;2.50;;;19.40;91.10;;;;;;5008701;28;20029;-15
2023/06/24 03:19:55;;;;;;;3.65;2.53;;;19.30;91.20;;;;;;5024848;28;20045;-19
2023/06/24 03:22:22;;;;;;;3.83;2.40;;;19.30;91.20;;;;;;5014591;28;20112;-18
2023/06/24 03:24:48;;;;;;;5.03;2.75;;;19.20;91.20;;;;;;5022860;28;20588;-17
2023/06/24 03:27:14;;;;;;;4.65;2.63;;;19.20;91.30;;;;;;5003416;28;20032;-18
2023/06/24 03:29:40;;;;;;;4.63;2.80;;;19.20;91.30;;;;;;4988712;28;20053;-15
2023/06/24 03:32:06;;;;;;;4.65;2.80;;;19.20;91.40;;;;;;5024867;28;20026;-18
2023/06/24 03:34:32;;;;;;;5.13;2.75;;;19.20;91.40;;;;;;5003656;28;20218;-15
2023/06/24 03:36:57;;;;;;;4.33;2.33;;;19.10;91.40;;;;;;5015105;28;20095;-17
2023/06/24 03:39:23;;;;;;;6.93;3.10;;;19.10;91.50;;;;;;5021482;28;20023;-18
2023/06/24 03:41:49;;;;;;;5.57;2.80;;;19.10;91.40;;;;;;5011337;28;20045;-16
2023/06/24 03:44:15;;;;;;;3.92;2.70;;;19.00;91.50;;;;;;5008094;28;20032;-18
2023/06/24 03:46:40;;;;;;;4.80;2.80;;;19.00;91.50;;;;;;5007709;28;20193;-19
2023/06/24 03:49:07;;;;;;;3.60;2.60;;;19.00;91.50;;;;;;5011247;28;20045;-15
2023/06/24 03:51:32;;;;;;;4.07;2.40;;;18.90;91.90;;;;;;5014449;28;20052;-15
2023/06/24 03:53:58;;;;;;;3.57;2.37;;;18.90;91.60;;;;;;5029157;28;20037;-16
2023/06/24 03:56:24;;;;;;;6.22;2.47;;;18.90;91.70;;;;;;5021757;28;20108;-18
2023/06/24 03:58:49;;;;;;;5.20;2.57;;;18.90;91.70;;;;;;4997963;28;20028;-17
2023/06/24 04:01:19;;;;;;;4.10;2.60;;;18.90;91.70;;;;;;4989407;28;20029;-16
2023/06/24 04:03:45;;;;;;;5.22;2.60;;;18.90;91.80;;;;;;5012875;28;20714;-16
2023/06/24 04:06:11;;;;;;;3.70;2.33;;;18.90;91.80;;;;;;5020726;28;20032;-16
2023/06/24 04:08:39;;;;;;;4.47;2.40;;;18.90;91.90;;;;;;5011826;28;20028;-17
2023/06/24 04:11:06;;;;;;;5.38;2.70;;;18.90;91.90;;;;;;5023961;28;20533;-18
2023/06/24 04:13:33;;;;;;;3.72;2.60;;;18.80;91.90;;;;;;5000726;28;20145;-15
2023/06/24 04:15:58;;;;;;;4.00;2.63;;;18.80;92.30;;;;;;4989928;28;20056;-16
2023/06/24 04:18:24;;;;;;;5.57;3.00;;;18.80;92.00;;;;;;5020638;28;20052;-17
2023/06/24 04:20:50;;;;;;;8.30;3.30;;;18.80;92.10;;;;;;5009787;28;20025;-16
2023/06/24 04:23:16;;;;;;;5.30;2.97;;;18.80;92.10;;;;;;5009632;28;20033;-20
2023/06/24 04:25:42;;;;;;;4.13;2.83;;;18.80;92.10;;;;;;5022228;28;20018;-15
2023/06/24 04:28:08;;;;;;;5.07;3.20;;;18.80;92.20;;;;;;5026611;28;20029;-18
2023/06/24 04:30:38;;;;;;;3.60;2.70;;;18.80;92.30;;;;;;4969314;28;20300;-17
2023/06/24 04:33:04;;;;;;;3.30;2.60;;;18.80;92.30;;;;;;5018900;28;20027;-21
2023/06/24 04:35:30;;;;;;;4.47;3.30;;;18.80;92.30;;;;;;5005351;28;20025;-16
2023/06/24 04:37:56;;;;;;;4.57;2.97;;;18.90;92.40;;;;;;5014761;28;20308;-15
2023/06/24 04:40:22;;;;;;;6.05;2.80;;;18.80;92.40;;;;;;5023753;28;20592;-17
2023/06/24 04:42:48;;;;;;;4.03;2.57;;;18.80;92.50;;;;;;5024450;28;20026;-15
2023/06/24 04:45:14;;;;;;;4.18;2.72;;;18.90;92.60;;;;;;5010230;28;20029;-16
2023/06/24 04:47:40;;;;;;;3.92;2.50;;;18.90;92.70;;;;;;4988798;28;20021;-19
2023/06/24 04:50:09;;;;;;;4.35;2.60;;;18.90;92.80;;;;;;5014683;28;20060;-18
2023/06/24 04:52:35;;;;;;;4.37;2.50;;;18.90;92.80;;;;;;5025020;28;20222;-16
2023/06/24 04:55:01;;;;;;;4.13;2.50;;;18.90;92.90;;;;;;5024928;28;20029;-15
2023/06/24 04:57:31;;;;;;;4.05;2.08;;;18.90;93.00;;;;;;5021633;28;20247;-16
2023/06/24 04:59:58;;;;;;;2.97;2.20;;;19.00;93.00;;;;;;5018749;28;20029;-15
2023/06/24 05:02:24;;;;;;;3.33;2.40;;;19.00;93.10;;;;;;4966962;28;20037;-15
2023/06/24 05:04:51;;;;;;;3.90;2.38;;;19.00;93.20;;;;;;5009247;28;20139;-16
2023/06/24 05:07:16;;;;;;;3.13;2.20;;;19.10;93.20;;;;;;5010029;28;20025;-16
2023/06/24 05:09:43;;;;;;;3.28;1.98;;;19.10;93.20;;;;;;5022705;28;20380;-19
2023/06/24 05:12:09;;;;;;;3.07;1.90;;;19.20;93.20;;;;;;5026208;28;20017;-16
2023/06/24 05:14:36;;;;;;;3.08;1.88;;;19.20;93.20;;;;;;5019049;28;20096;-18
2023/06/24 05:17:03;;;;;;;4.35;2.20;;;19.20;93.30;;;;;;4977620;28;20350;-15
2023/06/24 05:19:28;;;;;;;3.05;2.10;;;19.20;93.30;;;;;;5025254;28;20032;-15
2023/06/24 05:21:54;;;;;;;3.00;2.00;;;19.30;93.30;;;;;;4994769;28;20037;-15
2023/06/24 05:24:20;;;;;;;2.83;1.88;;;19.30;93.30;;;;;;5026287;28;20090;-16
2023/06/24 05:26:49;;;;;;;3.03;1.90;;;19.30;93.30;;;;;;5025697;28;20038;-18
2023/06/24 05:29:15;;;;;;;4.17;1.97;;;19.40;93.30;;;;;;5028590;28;20290;-15
2023/06/24 05:31:41;;;;;;;3.97;1.95;;;19.40;93.50;;;;;;5008097;28;20037;-17
2023/06/24 05:34:07;;;;;;;2.70;1.70;;;19.40;93.50;;;;;;4990957;28;20029;-15
2023/06/24 05:36:33;;;;;;;3.38;1.98;;;19.40;93.50;;;;;;5003577;28;20116;-19
2023/06/24 05:38:59;;;;;;;3.33;2.00;;;19.50;93.60;;;;;;5006290;28;20455;-17
2023/06/24 05:41:25;;;;;;;3.30;2.20;;;19.50;93.70;;;;;;5021086;28;20048;-16
2023/06/24 05:44:04;;;;;;;3.05;2.00;;;19.60;93.70;;;;;;5011122;28;20032;-16
2023/06/24 05:46:31;;;;;;;3.30;2.00;;;19.70;93.20;;;;;;5022137;28;20214;-17
2023/06/24 05:48:57;;;;;;;2.92;2.10;;;19.70;93.70;;;;;;4974327;28;20305;-15
2023/06/24 05:51:22;;;;;;;4.57;2.05;;;19.80;93.80;;;;;;5023324;28;20088;-16
2023/06/24 05:53:48;;;;;;;3.00;1.80;;;19.80;93.80;;;;;;5003300;28;20036;-16
2023/06/24 05:56:14;;;;;;;4.00;2.00;;;19.90;93.90;;;;;;5023693;28;20033;-17
2023/06/24 05:58:40;;;;;;;3.88;1.88;;;20.00;93.90;;;;;;5011641;28;20041;-19
2023/06/24 06:01:09;;;;;;;2.73;1.73;;;20.00;93.90;;;;;;5018754;28;20367;-16
2023/06/24 06:03:35;;;;;;;2.97;1.80;;;20.10;93.90;;;;;;5003761;28;20037;-17
2023/06/24 06:06:01;;;;;;;4.07;1.90;;;20.10;93.80;;;;;;4986920;28;20234;-15
2023/06/24 06:08:30;;;;;;;3.35;2.15;;;20.20;93.90;;;;;;5009165;28;20031;-17
2023/06/24 06:10:56;;;;;;;2.80;2.10;;;20.30;93.90;;;;;;5023216;28;20618;-16
2023/06/24 06:13:21;;;;;;;3.80;2.00;;;20.40;93.80;;;;;;5021492;28;20045;-17
2023/06/24 06:15:47;;;;;;;2.77;1.93;;;20.40;93.60;;;;;;5010245;28;20029;-18
2023/06/24 06:18:13;;;;;;;3.45;2.00;;;20.50;93.60;;;;;;5022479;28;20030;-15
2023/06/24 06:20:38;;;;;;;3.07;1.90;;;20.60;93.50;;;;;;4965401;28;20044;-20
2023/06/24 06:23:04;;;;;;;2.90;1.90;;;20.60;93.50;;;;;;5022122;28;20296;-17
2023/06/24 06:25:30;;;;;;;3.30;2.17;;;20.60;93.50;;;;;;5004975;28;20672;-18
2023/06/24 06:27:55;;;;;;;2.75;1.83;;;20.70;93.40;;;;;;5016686;28;20517;-15
2023/06/24 06:30:21;;;;;;;3.63;2.17;;;20.70;93.40;;;;;;5011576;28;20400;-19
2023/06/24 06:32:47;;;;;;;3.10;2.08;;;20.80;93.50;;;;;;5018841;28;20030;-17
2023/06/24 06:35:13;;;;;;;3.20;2.15;;;20.80;93.40;;;;;;5002267;28;20120;-17
2023/06/24 06:37:38;;;;;;;2.67;2.00;;;20.90;93.30;;;;;;5018560;28;20037;-17
2023/06/24 06:40:05;;;;;;;3.13;2.10;;;21.00;93.40;;;;;;5001114;28;20754;-19
2023/06/24 06:42:31;;;;;;;3.20;2.00;;;21.00;93.40;;;;;;5023859;28;20100;-19
2023/06/24 06:44:56;;;;;;;3.40;2.00;;;21.10;93.60;;;;;;5008965;28;20146;-17
2023/06/24 06:47:23;;;;;;;3.07;1.80;;;21.10;93.60;;;;;;5021910;28;20025;-16
2023/06/24 06:49:48;;;;;;;3.33;2.20;;;21.20;93.70;;;;;;4996867;28;20036;-16
2023/06/24 06:52:14;;;;;;;3.58;2.20;;;21.30;93.50;;;;;;4984908;28;20463;-17
2023/06/24 06:54:40;;;;;;;4.47;2.50;;;21.30;93.50;;;;;;5016288;28;20029;-15
2023/06/24 06:57:06;;;;;;;3.67;2.38;;;21.40;93.50;;;;;;5004905;28;20502;-18
2023/06/24 06:59:32;;;;;;;3.10;2.30;;;21.40;93.40;;;;;;5000486;28;20120;-16
2023/06/24 07:01:58;;;;;;;3.63;1.97;;;21.50;93.30;;;;;;5021255;28;20033;-18
2023/06/24 07:04:24;;;;;;;3.20;2.10;;;21.50;93.40;;;;;;5021738;28;20519;-16
2023/06/24 07:06:50;;;;;;;3.92;2.10;;;21.60;93.40;;;;;;4969412;28;20036;-15
2023/06/24 07:09:16;;;;;;;2.93;2.07;;;21.70;93.40;;;;;;5011350;28;20045;-16
2023/06/24 07:11:42;;;;;;;3.72;2.00;;;21.70;93.40;;;;;;5008013;28;20467;-16
2023/06/24 07:14:08;;;;;;;2.95;2.03;;;21.80;93.40;;;;;;5019562;28;20388;-19
2023/06/24 07:16:34;;;;;;;3.65;2.10;;;21.90;93.30;;;;;;5023200;28;20033;-17
2023/06/24 07:19:00;;;;;;;3.27;2.30;;;21.90;93.30;;;;;;5019887;28;20775;-18
2023/06/24 07:21:26;;;;;;;3.30;2.30;;;22.10;93.30;;;;;;5010512;28;20631;-16
2023/06/24 07:23:51;;;;;;;4.28;2.47;;;22.10;93.40;;;;;;4986083;28;20037;-15
2023/06/24 07:26:17;;;;;;;3.20;2.10;;;22.10;93.20;;;;;;4994320;28;20029;-15
2023/06/24 07:28:43;;;;;;;3.85;2.10;;;22.20;93.30;;;;;;5020083;28;20544;-15
2023/06/24 07:31:09;;;;;;;3.33;2.00;;;22.30;93.40;;;;;;5016607;28;20072;-17
2023/06/24 07:33:34;;;;;;;3.22;2.00;;;22.30;93.40;;;;;;5019947;28;20033;-16
2023/06/24 07:36:00;;;;;;;3.33;2.10;;;22.50;93.50;;;;;;5016182;28;20046;-17
2023/06/24 07:38:28;;;;;;;4.00;2.40;;;22.50;93.40;;;;;;4973934;28;20649;-15
2023/06/24 07:40:54;;;;;;;3.20;2.10;;;22.60;93.10;;;;;;5020898;28;20435;-15
2023/06/24 07:43:19;;;;;;;3.23;2.10;;;22.70;93.50;;;;;;4999602;28;20119;-15
2023/06/24 07:45:45;;;;;;;2.92;2.10;;;22.80;93.50;;;;;;5016145;28;20823;-18
2023/06/24 07:48:11;;;;;;;3.92;2.13;;;22.90;93.40;;;;;;5012242;28;20184;-16
2023/06/24 07:50:38;;;;;;;3.40;2.17;;;22.90;93.20;;;;;;5019741;28;20029;-20
2023/06/24 07:53:04;;;;;;;3.22;2.10;;;23.00;93.10;;;;;;4988404;28;20052;-18
2023/06/24 07:55:29;;;;;;;3.47;2.10;;;23.10;93.10;;;;;;4999577;28;20692;-16
2023/06/24 07:57:55;;;;;;;3.13;2.20;;;23.20;93.40;;;;;;4998939;28;20041;-15
2023/06/24 08:00:21;;;;;;;2.77;1.93;;;23.30;93.60;;;;;;5017232;28;20112;-16
2023/06/24 08:02:46;;;;;;;2.97;2.10;;;23.50;93.90;;;;;;5021035;28;20025;-14
2023/06/24 08:05:12;;;;;;;3.30;1.93;;;23.70;93.80;;;;;;5016162;28;20478;-19
2023/06/24 08:07:38;;;;;;;2.90;1.90;;;23.90;93.40;;;;;;5018804;28;20080;-17
2023/06/24 08:10:04;;;;;;;3.10;2.20;;;24.00;93.50;;;;;;4983789;28;20025;-18
2023/06/24 08:12:30;;;;;;;2.50;1.90;;;24.20;93.60;;;;;;4999864;28;20312;-20
2023/06/24 08:14:56;;;;;;;4.35;2.30;;;24.40;94.10;;;;;;5020789;28;20033;-16
2023/06/24 08:17:22;;;;;;;3.17;1.90;;;24.60;94.70;;;;;;5017033;28;20411;-16
2023/06/24 08:19:49;;;;;;;2.63;1.92;;;24.90;95.40;;;;;;5018818;28;20032;-16
2023/06/24 08:22:14;;;;;;;2.67;2.10;;;25.30;95.80;;;;;;5018565;28;20576;-16
2023/06/24 08:24:40;;;;;;;2.40;2.00;;;25.70;96.30;;;;;;4987587;28;20053;-16
2023/06/24 08:27:08;;;;;;;2.55;1.90;;;26.20;96.60;;;;;;5011580;28;20094;-19
2023/06/24 08:29:34;;;;;;;4.38;2.05;;;26.70;96.70;;;;;;5029087;28;20153;-15
2023/06/24 08:31:59;;;;;;;2.73;2.03;;;27.20;96.50;;;;;;5022032;28;20048;-17
2023/06/24 08:34:25;;;;;;;2.42;2.00;;;27.70;96.30;;;;;;5020122;28;20021;-16
2023/06/24 08:36:51;;;;;;;2.07;1.87;;;28.20;95.80;;;;;;5010438;28;20053;-18
2023/06/24 08:39:16;;;;;;;3.10;1.88;;;28.60;95.30;;;;;;5017759;28;20033;-19
2023/06/24 08:41:42;;;;;;;2.13;1.93;;;29.00;94.60;;;;;;4982607;28;20069;-16
2023/06/24 08:44:08;;;;;;;2.23;1.90;;;29.40;93.50;;;;;;4996933;28;20029;-18
2023/06/24 08:46:36;;;;;;;2.33;1.80;;;29.70;93.10;;;;;;5017570;28;20760;-14
2023/06/24 08:49:22;;;;;;;2.00;1.65;;;29.90;92.50;;;;;;5019310;28;20025;-18
2023/06/24 08:51:51;;;;;;;2.60;2.03;;;30.20;88.40;;;;;;5016007;28;20041;-16
2023/06/24 08:54:19;;;;;;;2.30;1.93;;;30.40;91.30;;;;;;5016306;28;20231;-17
2023/06/24 08:56:45;;;;;;;2.42;1.90;;;30.70;90.40;;;;;;4981921;28;20087;-16
2023/06/24 08:59:11;;;;;;;2.33;1.60;;;30.90;91.60;;;;;;5017593;28;20770;-18
2023/06/24 09:01:37;;;;;;;2.10;1.83;;;31.10;91.70;;;;;;5032108;28;20029;-16
2023/06/24 09:04:03;;;;;;;2.25;1.88;;;31.30;91.30;;;;;;5022637;28;20044;-17
2023/06/24 09:06:31;;;;;;;2.75;1.80;;;31.60;90.80;;;;;;5017542;28;20115;-16
2023/06/24 09:08:57;;;;;;;2.00;1.80;;;31.80;90.00;;;;;;5018031;28;20116;-18
2023/06/24 09:11:27;;;;;;;3.30;1.90;;;31.90;89.50;;;;;;5017935;28;20613;-15
2023/06/24 09:13:57;;;;;;;2.45;2.00;;;32.00;84.40;;;;;;4985271;28;20038;-15
2023/06/24 09:16:23;;;;;;;1.77;1.60;;;32.20;81.70;;;;;;5029978;28;20059;-14
2023/06/24 09:18:50;;;;;;;2.08;1.80;;;32.20;86.50;;;;;;5022339;28;20475;-16
2023/06/24 09:21:27;;;;;;;1.65;1.55;;;32.30;86.20;;;;;;5023203;28;20223;-16
2023/06/24 09:23:54;;;;;;;2.00;1.53;;;32.40;78.60;;;;;;5039435;28;20528;-15
2023/06/24 09:26:26;;;;;;;2.13;1.70;;;32.50;85.70;;;;;;5020406;28;20353;-16
2023/06/24 09:28:52;;;;;;;1.60;1.50;;;32.70;82.70;;;;;;4988163;28;20037;-20
2023/06/24 09:31:18;;;;;;;2.30;2.00;;;32.80;84.90;;;;;;4995332;28;23665;-16
2023/06/24 09:33:44;;;;;;;1.67;1.55;;;33.00;83.90;;;;;;5019621;28;20025;-18
2023/06/24 09:36:16;;;;;;;2.27;1.90;;;33.10;84.00;;;;;;5009229;28;20034;-18
2023/06/24 09:38:44;;;;;;;2.40;1.88;;;33.30;80.90;;;;;;5012431;28;20025;-15
2023/06/24 09:41:11;;;;;;;2.10;1.90;;;33.50;82.80;;;;;;5020769;28;20481;-19
2023/06/24 09:43:39;;;;;;;2.10;1.90;;;33.70;82.60;;;;;;5019181;28;20118;-16
2023/06/24 09:46:06;;;;;;;2.13;1.73;;;33.80;82.30;;;;;;4975666;28;20057;-19
2023/06/24 09:48:35;;;;;;;1.70;1.60;;;34.00;82.20;;;;;;5007795;28;20109;-16
2023/06/24 09:51:03;;;;;;;2.05;1.90;;;34.10;80.70;;;;;;5021598;28;20120;-18
2023/06/24 09:53:34;;;;;;;3.17;1.90;;;34.30;80.10;;;;;;5017670;28;20805;-16
2023/06/24 09:56:01;;;;;;;2.00;1.80;;;34.50;77.20;;;;;;5038724;28;20591;-19
2023/06/24 09:58:35;;;;;;;1.95;1.80;;;34.60;78.90;;;;;;5022878;28;20029;-16
2023/06/24 10:01:05;;;;;;;1.90;1.70;;;34.70;76.90;;;;;;4980788;28;20033;-18
2023/06/24 10:03:34;;;;;;;2.15;1.88;;;34.80;74.90;;;;;;5011043;28;20037;-16
2023/06/24 10:06:03;;;;;;;1.90;1.80;;;34.90;77.10;;;;;;5021757;28;20581;-16
2023/06/24 10:08:31;;;;;;;1.88;1.75;;;35.00;72.90;;;;;;5023639;28;20051;-15
2023/06/24 10:10:57;;;;;;;1.77;1.67;;;35.00;74.00;;;;;;5021932;28;20030;-18
2023/06/24 10:13:23;;;;;;;1.70;1.60;;;35.10;75.90;;;;;;5022235;28;20236;-15
2023/06/24 10:15:49;;;;;;;2.10;1.90;;;35.10;75.00;;;;;;5002168;28;20045;-16
2023/06/24 10:18:35;;;;;;;1.90;1.75;;;35.20;74.40;;;;;;5000130;28;20169;-16
2023/06/24 10:21:02;;;;;;;1.63;1.48;;;35.20;63.20;;;;;;5023985;28;20391;-18
2023/06/24 10:23:47;;;;;;;1.92;1.60;;;35.30;74.00;;;;;;5024898;28;20084;-16
2023/06/24 10:26:23;;;;;;;1.83;1.63;;;35.40;70.40;;;;;;5021660;28;20586;-18
2023/06/24 10:29:07;;;;;;;1.80;1.70;;;35.50;67.70;;;;;;5026484;28;20022;-16
2023/06/24 10:31:53;;;;;;;1.95;1.85;;;35.60;68.00;;;;;;4988146;28;20029;-16
2023/06/24 10:34:22;;;;;;;1.70;1.60;;;35.80;67.20;;;;;;5027003;28;20052;-17
2023/06/24 10:36:58;;;;;;;1.92;1.83;;;35.80;72.60;;;;;;5013629;28;20255;-16
2023/06/24 10:39:44;;;;;;;2.00;1.90;;;35.80;66.30;;;;;;5020904;28;20056;-19
2023/06/24 10:42:19;;;;;;;2.10;1.83;;;35.90;64.20;;;;;;5022706;28;20128;-15
2023/06/24 10:44:47;;;;;;;2.20;1.50;;;35.90;66.20;;;;;;5019526;28;20296;-15
2023/06/24 10:47:12;;;;;;;1.80;1.70;;;36.00;70.20;;;;;;4979711;28;20531;-18
2023/06/24 10:49:38;;;;;;;1.70;1.60;;;36.10;70.40;;;;;;4998934;28;20048;-15
2023/06/24 10:52:07;;;;;;;1.88;1.63;;;36.10;69.40;;;;;;5009624;28;20064;-18
2023/06/24 10:54:33;;;;;;;1.70;1.60;;;36.20;68.60;;;;;;5018474;28;20316;-16
2023/06/24 10:56:58;;;;;;;1.80;1.70;;;36.30;68.30;;;;;;5022091;28;20036;-16
2023/06/24 10:59:24;;;;;;;1.80;1.70;;;36.30;68.30;;;;;;5017187;28;20029;-18
2023/06/24 11:01:53;;;;;;;1.83;1.70;;;36.40;67.50;;;;;;4985889;28;20090;-16
2023/06/24 11:04:19;;;;;;;1.80;1.70;;;36.60;64.00;;;;;;5003870;28;20040;-18
2023/06/24 11:07:01;;;;;;;1.85;1.75;;;36.70;65.40;;;;;;5012278;28;20234;-17
2023/06/24 11:09:27;;;;;;;1.80;1.70;;;36.80;57.90;;;;;;5022041;28;20018;-16
2023/06/24 11:11:53;;;;;;;1.70;1.60;;;36.90;65.60;;;;;;5025183;28;20041;-16
2023/06/24 11:14:21;;;;;;;2.23;1.93;;;37.00;65.90;;;;;;5020754;28;20395;-17
2023/06/24 11:16:47;;;;;;;2.10;1.83;;;37.20;62.90;;;;;;4986543;28;20115;-17
2023/06/24 11:19:13;;;;;;;1.90;1.80;;;37.30;64.50;;;;;;5003790;28;20505;-19
2023/06/24 11:21:39;;;;;;;2.25;2.05;;;37.50;64.40;;;;;;5011886;28;21557;-17
2023/06/24 11:24:05;;;;;;;1.50;1.40;;;37.60;63.50;;;;;;5022648;28;20095;-17
2023/06/24 11:26:32;;;;;;;1.93;1.70;;;37.70;62.60;;;;;;5018559;28;20116;-17
2023/06/24 11:28:58;;;;;;;1.80;1.70;;;37.80;61.20;;;;;;5021784;28;20029;-15
2023/06/24 11:31:28;;;;;;;1.67;1.58;;;37.80;60.30;;;;;;4980530;28;20514;-19
2023/06/24 11:33:53;;;;;;;1.75;1.65;;;37.90;58.00;;;;;;5022680;28;20075;-17
2023/06/24 11:36:20;;;;;;;1.80;1.70;;;37.90;60.40;;;;;;4999124;28;20041;-18
2023/06/24 11:38:46;;;;;;;2.03;1.70;;;38.00;60.00;;;;;;5009116;28;21509;-15
2023/06/24 11:41:13;;;;;;;1.95;1.85;;;38.00;58.80;;;;;;5015987;28;20033;-19
2023/06/24 11:43:46;;;;;;;2.00;1.83;;;38.10;58.80;;;;;;5015542;28;20588;-17
2023/06/24 11:46:24;;;;;;;2.05;1.88;;;38.10;54.90;;;;;;5023371;28;20409;-18
2023/06/24 11:48:50;;;;;;;2.10;1.90;;;38.20;54.10;;;;;;4983845;28;20029;-16
2023/06/24 11:51:16;;;;;;;2.00;1.90;;;38.30;58.90;;;;;;5004330;28;20076;-18
2023/06/24 11:53:43;;;;;;;2.00;1.80;;;38.30;58.20;;;;;;5007747;28;23075;-16
2023/06/24 11:56:09;;;;;;;1.70;1.60;;;38.30;57.20;;;;;;5025358;28;20043;-18
2023/06/24 11:58:35;;;;;;;1.42;1.33;;;38.40;56.70;;;;;;5019814;28;20177;-16
2023/06/24 12:01:02;;;;;;;1.60;1.50;;;38.40;56.60;;;;;;5018418;28;20038;-17
2023/06/24 12:03:32;;;;;;;1.97;1.77;;;38.50;57.10;;;;;;4980333;28;20269;-17
2023/06/24 12:05:57;;;;;;;1.73;1.60;;;38.60;54.90;;;;;;5003717;28;20056;-18
2023/06/24 12:08:23;;;;;;;2.20;2.03;;;38.70;57.10;;;;;;5016522;28;20426;-20
2023/06/24 12:10:49;;;;;;;2.10;1.67;;;38.80;55.90;;;;;;5010527;28;20039;-17
2023/06/24 12:13:14;;;;;;;2.00;1.90;;;39.00;55.90;;;;;;5018906;28;20079;-17
2023/06/24 12:15:41;;;;;;;1.80;1.70;;;39.00;55.50;;;;;;5019134;28;20028;-16
2023/06/24 12:18:07;;;;;;;2.10;1.90;;;39.10;55.60;;;;;;5018936;28;20030;-19
2023/06/24 12:20:34;;;;;;;2.13;2.00;;;39.20;54.90;;;;;;4996481;28;20249;-16
2023/06/24 12:23:00;;;;;;;2.00;1.90;;;39.30;54.80;;;;;;4998762;28;20022;-17
2023/06/24 12:25:26;;;;;;;2.20;2.00;;;39.50;54.70;;;;;;5004582;28;20099;-17
2023/06/24 12:27:51;;;;;;;2.40;2.20;;;39.60;54.20;;;;;;5051765;28;20033;-16
2023/06/24 12:30:17;;;;;;;2.40;2.20;;;39.80;53.90;;;;;;5015846;28;20456;-21
2023/06/24 12:32:44;;;;;;;1.90;1.80;;;39.90;52.60;;;;;;5021554;28;20047;-15
2023/06/24 12:35:10;;;;;;;1.92;1.80;;;40.00;52.50;;;;;;4985365;28;20030;-18
2023/06/24 12:37:36;;;;;;;2.40;2.20;;;40.00;52.10;;;;;;5000174;28;21045;-16
2023/06/24 12:40:03;;;;;;;2.33;2.13;;;40.10;51.40;;;;;;5023991;28;20439;-16
2023/06/24 12:42:29;;;;;;;2.40;2.20;;;40.20;50.70;;;;;;5007728;28;20106;-15
2023/06/24 12:44:55;;;;;;;2.60;2.35;;;40.20;50.60;;;;;;5018696;28;20467;-16
2023/06/24 12:47:21;;;;;;;2.40;2.20;;;40.20;50.60;;;;;;5018009;28;20605;-20
2023/06/24 12:49:47;;;;;;;2.28;2.08;;;40.00;49.40;;;;;;5020642;28;20029;-18
2023/06/24 12:52:13;;;;;;;2.70;2.20;;;40.00;48.90;;;;;;4982299;28;20965;-18